Nearby METAR Reports. Back to Deeside Weather.

 

EGNR - Hawarden (aut), United Kingdom
Distance from station: NNE 5mi, 8km
Updated: Wed, 22-May-2019 8:50pm BST
NOT Current
Clear
Clear
 Wind from N
Wind: N 5 mph , 7 km/h
Temperature: 54°F , 12°C
Dew Point: 48°F , 9°C
Humidity: 82%
Barometer: 30.09 inHg , 1019 hPa
Summary: Clear
Visibility: greater than 7 miles , 10 km
2019/05/22 19:50 EGNR 221950Z 35004KT 320V020 CAVOK 12/09 Q1019
EGGP - Liverpool Airpor, United Kingdom
Distance from station: NNE 17mi, 27km
Updated: Wed, 22-May-2019 10:20pm BST
Clear
Clear
 Wind from WNW
Wind: WNW 7 mph , 11 km/h
Temperature: 54°F , 12°C
Dew Point: 48°F , 9°C
Humidity: 82%
Barometer: 30.06 inHg , 1018 hPa
Summary: Clear
Visibility: greater than 7 miles , 10 km
2019/05/22 21:20 EGGP 222120Z 30006KT CAVOK 12/09 Q1018
 
EGOS - Shawbury Raf, United Kingdom
Distance from station: SE 25mi, 41km
Updated: Wed, 22-May-2019 9:50pm BST
Clear
Clear
 Wind from WSW
Wind: WSW 6 mph , 9 km/h
Temperature: 54°F , 12°C
Dew Point: 41°F , 5°C
Humidity: 63%
Barometer: 30.06 inHg , 1018 hPa
Summary: Clear
Visibility: greater than 7 miles , 10 km
2019/05/22 20:50 EGOS 222050Z 25005KT CAVOK 12/05 Q1018 BLU NOSIG
EGCC - Manchester Intl, United Kingdom
Distance from station: ENE 36mi, 58km
Updated: Wed, 22-May-2019 10:20pm BST
Clear
Clear
 Wind from W
Wind: W 3 mph , 6 km/h
Temperature: 54°F , 12°C
Dew Point: 46°F , 8°C
Humidity: 77%
Barometer: 30.06 inHg , 1018 hPa
Clouds: Clear
Visibility: 6 miles , 10 km
2019/05/22 21:20 EGCC 222120Z AUTO 27003KT 9999 NCD 12/08 Q1018 NOSIG

Metar display script from Saratoga-Weather.org